Time;durP1;ratioP1;P1;durP2;ratioP2;P2;SDS_P1;SDS_P2;PMS_P1;PMS_P2;Temp;Humidity;BMP_temperature;BMP_pressure;BME280_temperature;BME280_humidity;BME280_pressure;Samples;Min_cycle;Max_cycle;Signal;HPM_P1;HPM_P2
2021/05/26 00:02:17;;;;;;;1.20;0.20;;;10.80;99.90;;;;;;5082748;28;20028;-81
2021/05/26 00:04:43;;;;;;;1.10;0.30;;;10.70;99.90;;;;;;5116881;28;20107;-80
2021/05/26 00:07:09;;;;;;;2.03;0.30;;;10.70;99.90;;;;;;5124225;28;20130;-80
2021/05/26 00:09:34;;;;;;;1.77;0.32;;;10.70;99.90;;;;;;5124757;28;20054;-81
2021/05/26 00:12:00;;;;;;;3.00;0.30;;;10.80;99.90;;;;;;5099677;28;20090;-80
2021/05/26 00:14:25;;;;;;;3.08;0.20;;;10.80;99.90;;;;;;5088210;28;20086;-80
2021/05/26 00:16:51;;;;;;;0.40;0.15;;;10.80;99.90;;;;;;5068240;28;20031;-81
2021/05/26 00:19:17;;;;;;;1.10;0.30;;;10.90;99.90;;;;;;5083808;28;20060;-80
2021/05/26 00:21:42;;;;;;;1.55;0.30;;;10.90;99.90;;;;;;5074044;28;20032;-80
2021/05/26 00:24:09;;;;;;;1.20;0.20;;;10.90;99.90;;;;;;5080068;28;20028;-81
2021/05/26 00:26:34;;;;;;;1.38;0.30;;;10.90;99.90;;;;;;5084485;28;20028;-81
2021/05/26 00:29:00;;;;;;;1.10;0.30;;;10.90;99.90;;;;;;5104521;28;20031;-80
2021/05/26 00:31:26;;;;;;;1.77;0.30;;;10.90;99.90;;;;;;5082784;28;20024;-80
2021/05/26 00:33:52;;;;;;;0.30;0.20;;;10.90;99.90;;;;;;5081866;28;20032;-80
2021/05/26 00:36:18;;;;;;;1.63;0.20;;;10.90;99.90;;;;;;5081985;28;20495;-80
2021/05/26 00:38:43;;;;;;;1.80;0.30;;;10.90;99.90;;;;;;5099167;22;20083;-78
2021/05/26 00:41:09;;;;;;;1.80;0.20;;;10.90;99.90;;;;;;5087038;28;20617;-79
2021/05/26 00:43:35;;;;;;;0.70;0.20;;;10.90;99.90;;;;;;5084563;28;20072;-80
2021/05/26 00:46:01;;;;;;;1.23;0.30;;;11.00;99.90;;;;;;5096837;28;20040;-80
2021/05/26 00:48:27;;;;;;;1.42;0.30;;;11.00;99.90;;;;;;5098963;28;20064;-80
2021/05/26 00:50:53;;;;;;;2.70;0.30;;;11.00;99.90;;;;;;5098815;28;20483;-78
2021/05/26 00:53:19;;;;;;;4.80;0.40;;;11.00;99.90;;;;;;5058981;28;20182;-80
2021/05/26 00:55:44;;;;;;;2.15;0.38;;;11.00;99.90;;;;;;5066485;28;20039;-78
2021/05/26 00:58:12;;;;;;;1.35;0.15;;;11.00;99.90;;;;;;5078244;28;20091;-78
2021/05/26 01:00:40;;;;;;;1.55;0.22;;;11.00;99.90;;;;;;5089903;28;20025;-77
2021/05/26 01:03:06;;;;;;;1.35;0.20;;;11.00;99.90;;;;;;5094976;28;20051;-79
2021/05/26 01:05:32;;;;;;;0.80;0.20;;;11.00;99.90;;;;;;5098266;28;20028;-79
2021/05/26 01:07:58;;;;;;;0.93;0.20;;;11.00;99.90;;;;;;5092510;28;20043;-77
2021/05/26 01:10:29;;;;;;;0.45;0.10;;;10.80;99.90;;;;;;5098515;28;20515;-78
2021/05/26 01:12:55;;;;;;;1.60;0.30;;;10.90;99.90;;;;;;5099788;28;20020;-78
2021/05/26 01:15:21;;;;;;;0.80;0.20;;;10.80;99.90;;;;;;5077696;28;20052;-78
2021/05/26 01:17:48;;;;;;;1.00;0.30;;;10.80;99.90;;;;;;5080201;28;20056;-80
2021/05/26 01:20:30;;;;;;;2.10;0.22;;;10.80;99.90;;;;;;5065741;28;20025;-77
2021/05/26 01:23:00;;;;;;;;;;;10.70;99.90;;;;;;5064408;28;20131;-81
2021/05/26 01:25:26;;;;;;;0.50;0.20;;;10.60;99.90;;;;;;5059149;28;19912;-78
2021/05/26 01:27:52;;;;;;;0.90;0.28;;;10.50;99.90;;;;;;5072192;28;20035;-78
2021/05/26 01:30:18;;;;;;;2.70;0.40;;;10.40;99.90;;;;;;5101200;28;20032;-77
2021/05/26 01:32:50;;;;;;;2.45;0.30;;;10.20;99.90;;;;;;5081960;28;20024;-79
2021/05/26 01:35:17;;;;;;;1.45;0.40;;;10.10;99.90;;;;;;5041635;28;20028;-80
2021/05/26 01:37:44;;;;;;;2.15;0.20;;;10.00;99.90;;;;;;5057691;28;20033;-80
2021/05/26 01:40:12;;;;;;;3.17;0.28;;;10.00;99.90;;;;;;5055883;28;20025;-79
2021/05/26 01:42:39;;;;;;;0.45;0.15;;;9.90;99.90;;;;;;5075697;28;20033;-80
2021/05/26 01:45:09;;;;;;;1.45;0.40;;;9.90;99.90;;;;;;5084331;28;20028;-80
2021/05/26 01:47:35;;;;;;;1.50;0.30;;;9.90;99.90;;;;;;5096784;28;20054;-79
2021/05/26 01:50:01;;;;;;;2.28;0.32;;;9.90;99.90;;;;;;5056095;28;20029;-80
2021/05/26 01:52:27;;;;;;;0.93;0.20;;;9.90;99.90;;;;;;5066906;28;20017;-78
2021/05/26 01:54:53;;;;;;;1.92;0.20;;;9.80;99.90;;;;;;5059555;28;20031;-80
2021/05/26 01:57:18;;;;;;;2.80;0.43;;;9.80;99.90;;;;;;5063523;28;20025;-80
2021/05/26 01:59:44;;;;;;;1.85;0.30;;;9.90;99.90;;;;;;5057947;28;20040;-79
2021/05/26 02:02:10;;;;;;;1.35;0.30;;;9.80;99.90;;;;;;5041915;28;20176;-79
2021/05/26 02:04:35;;;;;;;1.13;0.30;;;9.80;99.90;;;;;;5054930;28;20029;-79
2021/05/26 02:07:11;;;;;;;0.82;0.20;;;9.80;99.90;;;;;;5059485;28;20024;-78
2021/05/26 02:09:37;;;;;;;2.17;0.20;;;9.70;99.90;;;;;;5103441;28;20106;-80
2021/05/26 02:12:22;;;;;;;3.35;0.30;;;9.70;99.90;;;;;;5102142;28;20052;-79
2021/05/26 02:14:55;;;;;;;1.58;0.30;;;9.70;99.90;;;;;;5092708;28;20044;-80
2021/05/26 02:17:21;;;;;;;1.63;0.30;;;9.70;99.90;;;;;;5093839;28;20061;-80
2021/05/26 02:19:48;;;;;;;0.82;0.22;;;9.70;99.90;;;;;;5100822;28;20447;-80
2021/05/26 02:22:14;;;;;;;2.00;0.32;;;9.70;99.90;;;;;;5083034;28;20032;-79
2021/05/26 02:24:43;;;;;;;2.25;0.47;;;9.60;99.90;;;;;;5082046;28;20036;-79
2021/05/26 02:27:09;;;;;;;2.75;0.43;;;9.60;99.90;;;;;;5082273;28;20032;-79
2021/05/26 02:29:36;;;;;;;1.75;0.20;;;9.60;99.90;;;;;;5099626;28;20020;-79
2021/05/26 02:32:02;;;;;;;0.52;0.20;;;9.60;99.90;;;;;;5070940;28;20055;-80
2021/05/26 02:34:28;;;;;;;1.85;0.25;;;9.60;99.90;;;;;;5060770;28;20097;-79
2021/05/26 02:36:54;;;;;;;1.20;0.28;;;9.50;99.90;;;;;;5061172;28;20516;-79
2021/05/26 02:39:20;;;;;;;0.88;0.22;;;9.50;99.90;;;;;;5060463;28;20083;-80
2021/05/26 02:41:46;;;;;;;0.93;0.20;;;9.50;99.90;;;;;;5057696;28;20036;-80
2021/05/26 02:44:12;;;;;;;2.63;0.32;;;9.60;99.90;;;;;;5044179;28;20029;-80
2021/05/26 02:46:38;;;;;;;0.55;0.20;;;9.60;99.90;;;;;;5082510;28;20040;-80
2021/05/26 02:49:05;;;;;;;1.08;0.30;;;9.50;99.90;;;;;;5082517;28;20029;-78
2021/05/26 02:51:34;;;;;;;0.98;0.30;;;9.60;99.90;;;;;;5059254;28;20017;-79
2021/05/26 02:54:00;;;;;;;2.22;0.32;;;9.50;99.90;;;;;;5099760;28;20044;-80
2021/05/26 02:56:26;;;;;;;1.50;0.30;;;9.50;99.90;;;;;;5099991;28;20058;-80
2021/05/26 02:58:52;;;;;;;1.58;0.30;;;9.50;99.90;;;;;;5079645;28;20055;-80
2021/05/26 03:01:18;;;;;;;1.25;0.40;;;9.40;99.90;;;;;;5059960;28;20032;-80
2021/05/26 03:03:44;;;;;;;2.28;0.57;;;9.40;99.90;;;;;;5044099;28;20523;-80
2021/05/26 03:06:09;;;;;;;2.05;0.30;;;9.30;99.90;;;;;;5099934;28;20030;-80
2021/05/26 03:08:35;;;;;;;2.97;0.40;;;9.30;99.90;;;;;;5053738;28;20028;-79
2021/05/26 03:11:01;;;;;;;2.97;0.47;;;9.20;99.90;;;;;;5059785;28;20154;-80
2021/05/26 03:13:27;;;;;;;1.55;0.30;;;9.20;99.90;;;;;;5059377;28;20503;-80
2021/05/26 03:15:53;;;;;;;1.98;0.80;;;9.30;99.90;;;;;;5078499;28;20025;-80
2021/05/26 03:18:20;;;;;;;0.80;0.25;;;9.30;99.90;;;;;;5081779;28;20032;-81
2021/05/26 03:20:46;;;;;;;2.08;0.45;;;9.20;99.90;;;;;;5081275;28;20051;-80
2021/05/26 03:23:12;;;;;;;2.03;0.40;;;9.20;99.90;;;;;;5099089;28;20028;-79
2021/05/26 03:25:38;;;;;;;2.88;0.38;;;9.20;99.90;;;;;;5077457;28;20502;-80
2021/05/26 03:28:04;;;;;;;2.15;0.40;;;9.20;99.90;;;;;;5080930;28;20020;-80
2021/05/26 03:30:30;;;;;;;1.52;0.50;;;9.20;99.90;;;;;;5080981;28;20020;-79
2021/05/26 03:32:55;;;;;;;3.40;0.65;;;9.20;99.90;;;;;;5066394;28;20492;-80
2021/05/26 03:35:21;;;;;;;1.55;0.40;;;9.20;99.90;;;;;;5057759;28;20102;-79
2021/05/26 03:37:48;;;;;;;2.58;0.50;;;9.20;99.90;;;;;;5057997;28;20032;-80
2021/05/26 03:40:15;;;;;;;4.22;0.68;;;9.30;99.90;;;;;;5061170;28;20093;-79
2021/05/26 03:42:42;;;;;;;3.05;0.40;;;9.30;99.90;;;;;;5048097;28;20078;-80
2021/05/26 03:45:09;;;;;;;1.05;0.40;;;9.30;99.90;;;;;;5047789;28;20025;-79
2021/05/26 03:47:36;;;;;;;1.80;0.50;;;9.30;99.90;;;;;;5077530;28;20093;-80
2021/05/26 03:50:03;;;;;;;1.35;0.40;;;9.30;99.90;;;;;;5054936;28;20078;-80
2021/05/26 03:52:29;;;;;;;1.92;0.40;;;9.20;99.90;;;;;;5062481;28;20067;-80
2021/05/26 03:54:54;;;;;;;2.08;0.35;;;9.30;99.90;;;;;;5076656;28;20068;-79
2021/05/26 03:57:20;;;;;;;3.88;0.40;;;9.30;99.90;;;;;;5076435;28;20032;-79
2021/05/26 03:59:46;;;;;;;1.35;0.40;;;9.30;99.90;;;;;;5074774;28;20025;-79
2021/05/26 04:02:11;;;;;;;3.47;0.57;;;9.30;99.90;;;;;;5056197;28;20440;-79
2021/05/26 04:04:39;;;;;;;2.92;0.45;;;9.30;99.90;;;;;;5063143;28;20097;-79
2021/05/26 04:07:05;;;;;;;0.85;0.30;;;9.30;99.90;;;;;;5058319;28;20088;-79
2021/05/26 04:09:31;;;;;;;3.28;0.63;;;9.40;99.90;;;;;;5069157;28;20052;-80
2021/05/26 04:11:57;;;;;;;2.78;0.47;;;9.40;99.90;;;;;;5056826;28;20025;-79
2021/05/26 04:14:23;;;;;;;11.93;1.20;;;9.30;99.90;;;;;;5058670;28;20035;-79
2021/05/26 04:16:48;;;;;;;1.45;0.40;;;9.30;99.90;;;;;;5083864;28;20373;-79
2021/05/26 04:19:14;;;;;;;2.53;0.50;;;9.30;99.90;;;;;;5065435;28;20029;-80
2021/05/26 04:21:39;;;;;;;0.70;0.15;;;9.30;99.90;;;;;;5057121;28;20031;-80
2021/05/26 04:24:05;;;;;;;0.82;0.30;;;9.30;99.90;;;;;;5063113;28;20035;-79
2021/05/26 04:26:31;;;;;;;1.85;0.50;;;9.30;99.90;;;;;;5066850;28;20040;-78
2021/05/26 04:28:56;;;;;;;2.03;0.50;;;9.30;99.90;;;;;;5076815;28;20032;-81
2021/05/26 04:31:22;;;;;;;1.67;0.40;;;9.40;99.90;;;;;;5100404;28;20024;-80
2021/05/26 04:33:48;;;;;;;1.52;0.45;;;9.40;99.90;;;;;;5096640;28;20031;-80
2021/05/26 04:36:14;;;;;;;2.15;0.50;;;9.30;99.90;;;;;;5074455;28;20036;-80
2021/05/26 04:38:39;;;;;;;1.65;0.40;;;9.30;99.90;;;;;;5056521;28;20037;-80
2021/05/26 04:41:08;;;;;;;2.72;0.30;;;9.20;99.90;;;;;;5066796;28;20024;-80
2021/05/26 04:43:34;;;;;;;2.75;0.77;;;9.20;99.90;;;;;;5074738;28;20033;-81
2021/05/26 04:46:04;;;;;;;2.28;0.45;;;9.20;99.90;;;;;;5084985;28;20562;-82
2021/05/26 04:48:30;;;;;;;2.70;0.52;;;9.20;99.90;;;;;;5078352;28;20024;-80
2021/05/26 04:50:56;;;;;;;1.02;0.30;;;9.30;99.90;;;;;;5095763;28;20043;-80
2021/05/26 04:53:22;;;;;;;2.60;0.30;;;9.20;99.90;;;;;;5074276;28;20056;-80
2021/05/26 04:55:48;;;;;;;1.40;0.30;;;9.20;99.90;;;;;;5076475;28;20024;-80
2021/05/26 04:58:13;;;;;;;2.05;0.43;;;9.20;99.90;;;;;;5058787;28;20037;-81
2021/05/26 05:00:39;;;;;;;3.10;0.50;;;9.20;99.90;;;;;;5061445;28;20029;-81
2021/05/26 05:03:05;;;;;;;1.98;0.43;;;9.20;99.90;;;;;;5057007;28;20032;-81
2021/05/26 05:05:34;;;;;;;2.72;0.30;;;9.10;99.90;;;;;;5069675;28;20032;-80
2021/05/26 05:08:04;;;;;;;2.70;0.50;;;9.20;99.90;;;;;;5071208;28;20033;-81
2021/05/26 05:10:31;;;;;;;1.80;0.47;;;9.10;99.90;;;;;;5055744;28;20025;-81
2021/05/26 05:12:57;;;;;;;2.72;0.35;;;9.20;99.90;;;;;;5056927;28;20029;-80
2021/05/26 05:15:23;;;;;;;2.05;0.77;;;9.10;99.90;;;;;;5064818;28;20094;-81
2021/05/26 05:17:49;;;;;;;3.67;0.50;;;9.20;99.90;;;;;;5072833;28;20036;-78
2021/05/26 05:20:17;;;;;;;1.58;0.40;;;9.20;99.90;;;;;;5075790;28;20112;-80
2021/05/26 05:22:42;;;;;;;2.28;0.45;;;9.20;99.90;;;;;;5076376;28;20032;-81
2021/05/26 05:25:09;;;;;;;3.83;0.40;;;9.10;99.90;;;;;;5051492;28;20029;-81
2021/05/26 05:27:35;;;;;;;2.55;0.50;;;9.10;99.90;;;;;;5038215;28;20033;-81
2021/05/26 05:30:00;;;;;;;2.70;0.30;;;9.10;99.90;;;;;;5085620;28;20028;-81
2021/05/26 05:32:26;;;;;;;3.00;0.55;;;9.10;99.90;;;;;;5095070;28;20031;-81
2021/05/26 05:34:51;;;;;;;2.60;0.40;;;9.20;99.90;;;;;;5077020;28;20491;-80
2021/05/26 05:37:17;;;;;;;1.77;0.40;;;9.20;99.90;;;;;;5055326;28;20041;-80
2021/05/26 05:39:43;;;;;;;2.08;0.68;;;9.20;99.90;;;;;;5036599;28;20047;-80
2021/05/26 05:42:08;;;;;;;1.85;0.50;;;9.20;99.90;;;;;;5058903;28;20034;-81
2021/05/26 05:44:34;;;;;;;3.35;0.30;;;9.10;99.90;;;;;;5073254;28;20067;-80
2021/05/26 05:46:59;;;;;;;1.60;0.40;;;9.30;99.90;;;;;;5074817;28;20487;-79
2021/05/26 05:49:25;;;;;;;2.28;0.40;;;9.40;99.90;;;;;;5073823;28;20033;-79
2021/05/26 05:51:50;;;;;;;2.30;0.40;;;9.30;99.90;;;;;;5072867;28;20040;-81
2021/05/26 05:54:16;;;;;;;2.25;0.50;;;9.30;99.90;;;;;;5057256;28;20032;-80
2021/05/26 05:56:42;;;;;;;1.98;0.40;;;9.20;99.90;;;;;;5035659;28;20025;-81
2021/05/26 05:59:08;;;;;;;1.80;0.30;;;9.20;99.90;;;;;;5053665;28;20033;-78
2021/05/26 06:01:33;;;;;;;2.97;0.50;;;9.20;99.90;;;;;;5035331;28;20395;-80
2021/05/26 06:03:59;;;;;;;2.30;0.50;;;9.20;99.90;;;;;;5035682;28;20071;-80
2021/05/26 06:06:25;;;;;;;1.40;0.35;;;9.20;99.90;;;;;;5053187;28;20123;-80
2021/05/26 06:08:51;;;;;;;3.38;0.60;;;9.20;99.90;;;;;;5048940;28;20484;-80
2021/05/26 06:11:16;;;;;;;2.13;0.60;;;9.30;99.90;;;;;;5053105;28;20329;-80
2021/05/26 06:13:46;;;;;;;2.63;0.30;;;9.30;99.90;;;;;;5053753;28;20136;-79
2021/05/26 06:16:11;;;;;;;3.15;0.68;;;9.30;99.90;;;;;;5065476;28;20053;-80
2021/05/26 06:18:37;;;;;;;2.72;0.47;;;9.30;99.90;;;;;;5064703;28;20040;-80
2021/05/26 06:21:03;;;;;;;4.20;0.82;;;9.30;99.90;;;;;;5053377;28;20029;-80
2021/05/26 06:23:29;;;;;;;2.22;0.47;;;9.30;99.90;;;;;;5035651;28;20043;-81
2021/05/26 06:25:54;;;;;;;3.75;0.63;;;9.30;99.90;;;;;;5059926;28;20033;-80
2021/05/26 06:28:20;;;;;;;1.55;0.50;;;9.40;99.90;;;;;;5072872;28;20260;-79
2021/05/26 06:30:46;;;;;;;1.67;0.52;;;9.40;99.90;;;;;;5074236;28;20028;-80
2021/05/26 06:33:12;;;;;;;4.22;0.65;;;9.50;99.90;;;;;;5077564;28;20039;-80
2021/05/26 06:35:38;;;;;;;2.05;0.63;;;9.60;99.90;;;;;;5044758;28;20037;-80
2021/05/26 06:38:04;;;;;;;2.22;0.57;;;9.60;99.90;;;;;;5071479;28;20045;-79
2021/05/26 06:40:30;;;;;;;3.03;0.43;;;9.60;99.90;;;;;;5067257;28;20082;-81
2021/05/26 06:42:55;;;;;;;1.27;0.40;;;9.60;99.90;;;;;;5076364;28;20161;-80
2021/05/26 06:45:22;;;;;;;2.78;0.40;;;9.60;99.90;;;;;;5058255;28;20035;-81
2021/05/26 06:47:48;;;;;;;2.00;0.35;;;9.70;99.90;;;;;;5076820;28;20036;-81
2021/05/26 06:50:14;;;;;;;3.97;0.50;;;9.60;99.90;;;;;;5074389;28;20032;-85
2021/05/26 06:52:39;;;;;;;2.13;0.60;;;9.60;99.90;;;;;;5057776;28;20117;-84
2021/05/26 06:55:06;;;;;;;1.88;0.45;;;9.60;99.90;;;;;;5075464;28;20063;-83
2021/05/26 06:57:32;;;;;;;2.65;0.60;;;9.60;99.90;;;;;;5060129;28;20070;-84
2021/05/26 06:59:58;;;;;;;2.25;0.52;;;9.70;99.90;;;;;;5068776;28;20028;-84
2021/05/26 07:02:23;;;;;;;1.75;0.57;;;10.00;99.90;;;;;;5065651;28;20492;-84
2021/05/26 07:04:49;;;;;;;1.98;0.40;;;9.80;99.90;;;;;;5058546;28;20028;-84
2021/05/26 07:07:14;;;;;;;2.47;0.50;;;9.90;99.90;;;;;;5097484;28;20099;-84
2021/05/26 07:09:40;;;;;;;3.08;0.60;;;9.90;99.90;;;;;;5097775;28;20040;-84
2021/05/26 07:12:06;;;;;;;3.75;0.73;;;10.00;99.90;;;;;;5045398;28;20036;-83
2021/05/26 07:14:32;;;;;;;4.68;0.55;;;9.90;99.90;;;;;;5039375;28;20040;-82
2021/05/26 07:16:57;;;;;;;2.17;0.60;;;9.90;99.90;;;;;;5078803;28;20080;-83
2021/05/26 07:19:23;;;;;;;2.60;0.40;;;9.90;99.90;;;;;;5055362;28;20058;-84
2021/05/26 07:21:49;;;;;;;3.90;0.50;;;10.00;99.90;;;;;;5044238;28;20025;-83
2021/05/26 07:24:15;;;;;;;1.48;0.50;;;10.00;99.90;;;;;;5068353;28;20040;-83
2021/05/26 07:26:40;;;;;;;3.47;1.02;;;9.90;99.90;;;;;;5064843;28;20043;-83
2021/05/26 07:29:06;;;;;;;3.55;0.95;;;10.00;99.90;;;;;;5058923;28;20060;-83
2021/05/26 07:31:32;;;;;;;4.30;0.75;;;10.10;99.90;;;;;;5073551;28;20553;-83
2021/05/26 07:33:58;;;;;;;1.80;0.45;;;10.10;99.90;;;;;;5074236;28;20040;-82
2021/05/26 07:36:24;;;;;;;2.20;0.70;;;10.10;99.90;;;;;;5062387;28;20097;-85
2021/05/26 07:38:50;;;;;;;1.13;0.60;;;10.10;99.90;;;;;;5075385;28;20048;-83
2021/05/26 07:41:16;;;;;;;3.33;0.60;;;10.10;99.90;;;;;;5057091;28;20028;-83
2021/05/26 07:43:41;;;;;;;1.30;0.40;;;10.20;99.90;;;;;;5058533;28;20032;-84
2021/05/26 07:46:07;;;;;;;3.17;0.70;;;10.20;99.90;;;;;;5072013;28;20052;-83
2021/05/26 07:48:34;;;;;;;1.77;0.65;;;10.20;99.90;;;;;;5073247;28;20078;-83
2021/05/26 07:51:01;;;;;;;2.53;0.60;;;10.30;99.90;;;;;;5069240;28;20020;-84
2021/05/26 07:53:27;;;;;;;5.55;1.02;;;10.40;99.90;;;;;;5069867;28;20028;-83
2021/05/26 07:55:53;;;;;;;3.05;0.80;;;10.40;99.90;;;;;;5055149;28;20024;-83
2021/05/26 07:58:18;;;;;;;3.40;0.75;;;10.50;99.90;;;;;;5071198;28;20032;-82
2021/05/26 08:00:44;;;;;;;5.95;0.68;;;10.40;99.90;;;;;;5073635;28;20031;-84
2021/05/26 08:03:10;;;;;;;5.53;0.77;;;10.40;99.90;;;;;;5074024;28;20035;-84
2021/05/26 08:05:35;;;;;;;3.53;0.77;;;10.50;99.90;;;;;;5055729;28;20032;-84
2021/05/26 08:08:01;;;;;;;3.38;0.80;;;10.40;99.90;;;;;;5069299;28;20100;-83
2021/05/26 08:10:27;;;;;;;2.28;0.68;;;10.40;99.90;;;;;;5073545;28;20020;-82
2021/05/26 08:12:53;;;;;;;2.47;0.50;;;10.50;99.90;;;;;;5055667;28;20045;-83
2021/05/26 08:15:19;;;;;;;5.00;0.73;;;10.40;99.90;;;;;;5073986;28;20047;-84
2021/05/26 08:17:44;;;;;;;4.25;0.98;;;10.50;99.90;;;;;;5054705;28;20040;-83
2021/05/26 08:20:11;;;;;;;2.03;0.50;;;10.40;99.90;;;;;;5073220;28;20047;-84
2021/05/26 08:22:36;;;;;;;3.67;0.70;;;10.50;99.90;;;;;;5071996;28;20115;-85
2021/05/26 08:25:03;;;;;;;3.70;0.70;;;10.50;99.90;;;;;;5056884;28;20107;-85
2021/05/26 08:27:30;;;;;;;2.95;0.70;;;10.50;99.90;;;;;;5048212;28;20409;-81
2021/05/26 08:29:59;;;;;;;2.22;0.50;;;10.50;99.90;;;;;;5060400;28;20020;-82
2021/05/26 08:32:25;;;;;;;3.40;0.65;;;10.50;99.90;;;;;;5087349;22;20195;-83
2021/05/26 08:34:53;;;;;;;2.72;0.73;;;10.40;99.90;;;;;;5074403;28;20506;-83
2021/05/26 08:37:18;;;;;;;2.75;0.52;;;10.40;99.90;;;;;;5075921;28;20028;-82
2021/05/26 08:39:44;;;;;;;5.38;0.88;;;10.40;99.90;;;;;;5077501;28;20029;-82
2021/05/26 08:42:10;;;;;;;3.78;1.00;;;10.30;99.90;;;;;;5073889;28;20084;-82
2021/05/26 08:44:36;;;;;;;7.40;0.70;;;10.30;99.90;;;;;;5078829;28;20029;-82
2021/05/26 08:47:03;;;;;;;5.72;1.73;;;10.30;99.90;;;;;;5080054;28;20028;-82
2021/05/26 08:49:30;;;;;;;1.77;0.70;;;10.20;99.90;;;;;;5079419;28;20062;-83
2021/05/26 08:52:00;;;;;;;2.70;0.70;;;10.10;99.90;;;;;;5074077;28;20048;-83
2021/05/26 08:54:26;;;;;;;2.35;0.82;;;10.00;99.90;;;;;;5078779;28;20059;-84
2021/05/26 08:56:52;;;;;;;4.35;0.73;;;10.00;99.90;;;;;;5079139;28;20035;-83
2021/05/26 08:59:17;;;;;;;3.25;0.60;;;9.90;99.90;;;;;;5084403;28;20076;-84
2021/05/26 09:01:51;;;;;;;2.67;0.60;;;9.90;99.90;;;;;;5072094;28;20028;-84
2021/05/26 09:04:27;;;;;;;4.13;0.88;;;9.90;99.90;;;;;;5081297;28;20028;-83
2021/05/26 09:07:15;;;;;;;6.88;0.90;;;9.90;99.90;;;;;;5094813;28;20058;-82
2021/05/26 09:09:48;;;;;;;4.85;0.90;;;10.00;99.90;;;;;;5073586;28;20041;-82
2021/05/26 09:12:22;;;;;;;2.15;0.60;;;10.00;99.90;;;;;;5077774;28;20033;-82
2021/05/26 09:14:48;;;;;;;2.45;0.75;;;10.00;99.90;;;;;;5073280;28;20455;-83
2021/05/26 09:17:13;;;;;;;3.78;0.52;;;10.30;99.90;;;;;;5072994;28;20028;-81
2021/05/26 09:19:39;;;;;;;3.20;0.63;;;10.10;99.90;;;;;;5076214;28;20036;-81
2021/05/26 09:22:25;;;;;;;4.35;0.93;;;10.20;99.90;;;;;;5073439;28;20035;-81
2021/05/26 09:24:50;;;;;;;1.67;0.70;;;10.20;99.90;;;;;;5075974;28;20020;-81
2021/05/26 09:27:16;;;;;;;3.45;0.80;;;10.30;99.90;;;;;;5072485;28;20031;-82
2021/05/26 09:29:44;;;;;;;2.08;0.60;;;10.30;99.90;;;;;;5076071;28;20162;-81
2021/05/26 09:32:10;;;;;;;2.05;0.50;;;10.30;99.90;;;;;;5069455;28;20112;-83
2021/05/26 09:34:39;;;;;;;2.97;0.70;;;10.40;99.90;;;;;;5072966;28;20032;-82
2021/05/26 09:37:06;;;;;;;2.80;0.73;;;10.40;99.90;;;;;;5074713;28;20023;-84
2021/05/26 09:39:51;;;;;;;2.75;0.50;;;10.40;99.90;;;;;;5071158;28;20035;-81
2021/05/26 09:42:41;;;;;;;2.83;0.60;;;10.50;99.90;;;;;;5071662;28;20105;-80
2021/05/26 09:45:15;;;;;;;3.40;0.60;;;10.40;99.90;;;;;;5072714;28;20090;-80
2021/05/26 09:47:43;;;;;;;2.78;1.10;;;10.50;99.90;;;;;;5071951;28;20047;-80
2021/05/26 09:50:32;;;;;;;5.10;0.85;;;10.50;99.90;;;;;;5074335;28;20123;-81
2021/05/26 09:52:58;;;;;;;3.72;0.77;;;10.60;99.90;;;;;;5070692;28;20115;-81
2021/05/26 09:55:35;;;;;;;1.40;0.40;;;10.60;99.90;;;;;;5090737;28;20101;-81
2021/05/26 09:58:02;;;;;;;2.85;0.35;;;10.60;99.90;;;;;;5076712;28;20020;-81
2021/05/26 10:00:29;;;;;;;1.52;0.50;;;10.50;99.90;;;;;;5072159;28;20037;-81
2021/05/26 10:02:55;;;;;;;1.85;0.40;;;10.60;99.90;;;;;;5073022;28;20103;-81
2021/05/26 10:05:22;;;;;;;1.00;0.40;;;10.60;99.90;;;;;;5073972;28;20074;-81
2021/05/26 10:07:52;;;;;;;2.95;0.50;;;10.60;99.90;;;;;;5073636;28;20017;-81
2021/05/26 10:10:20;;;;;;;1.88;0.40;;;10.70;99.90;;;;;;5072370;28;20020;-80
2021/05/26 10:12:52;;;;;;;1.48;0.20;;;10.60;99.90;;;;;;5074404;28;20024;-80
2021/05/26 10:15:19;;;;;;;0.82;0.28;;;10.60;99.90;;;;;;5073950;28;20017;-80
2021/05/26 10:17:51;;;;;;;2.05;0.30;;;10.60;99.90;;;;;;5070404;28;20036;-80
2021/05/26 10:20:23;;;;;;;1.40;0.32;;;10.60;99.90;;;;;;5073739;28;20029;-81
2021/05/26 10:22:51;;;;;;;0.80;0.30;;;10.70;99.90;;;;;;5074905;28;20028;-80
2021/05/26 10:25:18;;;;;;;0.55;0.22;;;10.70;99.90;;;;;;5076325;28;20032;-81
2021/05/26 10:27:52;;;;;;;2.05;0.30;;;10.80;99.90;;;;;;5076685;28;20012;-80
2021/05/26 10:30:20;;;;;;;2.13;0.20;;;10.70;99.90;;;;;;5076182;28;20017;-82
2021/05/26 10:33:04;;;;;;;1.40;0.47;;;10.80;99.90;;;;;;5075545;28;20024;-82
2021/05/26 10:36:00;;;;;;;0.80;0.20;;;10.80;99.90;;;;;;5070827;28;20025;-82
2021/05/26 10:38:26;;;;;;;1.02;0.20;;;11.00;99.90;;;;;;5073681;28;20027;-81
2021/05/26 10:40:53;;;;;;;0.60;0.20;;;11.00;99.90;;;;;;5077545;28;20024;-81
2021/05/26 10:43:19;;;;;;;0.90;0.10;;;10.90;99.90;;;;;;5092711;28;20100;-81
2021/05/26 10:45:50;;;;;;;3.83;0.63;;;11.00;99.90;;;;;;5075773;28;20031;-81
2021/05/26 10:48:38;;;;;;;0.90;0.20;;;11.00;99.90;;;;;;5074665;28;20028;-81
2021/05/26 10:51:05;;;;;;;2.28;0.70;;;11.00;99.90;;;;;;5066724;28;20029;-81
2021/05/26 10:53:42;;;;;;;1.52;0.55;;;11.00;99.90;;;;;;5074271;28;20396;-82
2021/05/26 10:56:35;;;;;;;0.73;0.20;;;11.20;99.90;;;;;;5075455;28;20027;-83
2021/05/26 10:59:14;;;;;;;1.10;0.30;;;11.10;99.90;;;;;;5078046;28;20054;-81
2021/05/26 11:02:15;;;;;;;1.98;0.50;;;11.10;99.90;;;;;;5076566;28;20143;-81
2021/05/26 11:04:41;;;;;;;1.55;0.40;;;11.00;99.90;;;;;;5077031;28;20032;-81
2021/05/26 11:07:33;;;;;;;1.23;0.40;;;11.00;99.90;;;;;;5075140;28;20013;-81
2021/05/26 11:10:01;;;;;;;1.02;0.30;;;11.10;99.90;;;;;;5086205;28;20423;-83
2021/05/26 11:12:27;;;;;;;1.40;0.32;;;11.10;99.90;;;;;;5085718;28;20031;-82
2021/05/26 11:14:54;;;;;;;1.63;0.40;;;11.20;99.90;;;;;;5076687;28;20380;-81
2021/05/26 11:17:24;;;;;;;1.35;0.45;;;11.20;99.90;;;;;;5077792;28;20039;-82
2021/05/26 11:19:50;;;;;;;1.60;0.40;;;11.30;99.90;;;;;;5074973;28;20032;-83
2021/05/26 11:22:22;;;;;;;1.60;0.57;;;11.40;99.90;;;;;;5073514;28;20033;-81
2021/05/26 11:24:50;;;;;;;1.52;0.28;;;11.40;99.90;;;;;;5074021;28;20116;-81
2021/05/26 11:27:26;;;;;;;1.02;0.20;;;11.40;99.90;;;;;;5070885;28;20063;-81
2021/05/26 11:29:59;;;;;;;2.22;0.43;;;11.30;99.90;;;;;;5068248;28;20400;-82
2021/05/26 11:32:26;;;;;;;1.50;0.20;;;11.50;99.90;;;;;;5072465;28;20028;-81
2021/05/26 11:34:54;;;;;;;3.78;0.32;;;11.50;99.90;;;;;;5075310;28;20103;-82
2021/05/26 11:37:35;;;;;;;1.38;0.30;;;11.50;99.90;;;;;;5075293;28;20025;-82
2021/05/26 11:40:03;;;;;;;1.08;0.30;;;11.50;99.90;;;;;;5077204;28;20476;-81
2021/05/26 11:42:30;;;;;;;1.05;0.20;;;11.50;99.90;;;;;;5078547;28;20137;-82
2021/05/26 11:45:06;;;;;;;1.13;0.22;;;11.40;99.90;;;;;;5070387;28;20024;-81
2021/05/26 11:47:42;;;;;;;1.23;0.30;;;11.40;99.90;;;;;;5058868;28;20136;-82
2021/05/26 11:50:17;;;;;;;1.30;0.20;;;11.50;99.90;;;;;;5059323;28;20032;-81
2021/05/26 11:52:50;;;;;;;1.50;0.25;;;11.40;99.90;;;;;;5063229;28;20039;-81
2021/05/26 11:55:21;;;;;;;2.83;0.20;;;11.50;99.90;;;;;;5086608;28;20029;-81
2021/05/26 11:57:49;;;;;;;1.23;0.40;;;11.60;99.90;;;;;;5073193;28;20036;-81
2021/05/26 12:00:21;;;;;;;0.43;0.10;;;11.50;99.90;;;;;;5075290;28;20115;-82
2021/05/26 12:03:09;;;;;;;1.65;0.30;;;11.50;99.90;;;;;;5071868;28;20037;-82
2021/05/26 12:05:40;;;;;;;0.70;0.20;;;11.60;99.90;;;;;;5073543;28;20029;-81
2021/05/26 12:08:16;;;;;;;1.57;0.30;;;11.70;99.90;;;;;;5069639;28;20021;-82
2021/05/26 12:10:43;;;;;;;1.52;0.28;;;11.80;99.90;;;;;;5072684;28;20027;-80
2021/05/26 12:13:09;;;;;;;2.08;0.32;;;11.80;99.90;;;;;;5072770;28;20028;-81
2021/05/26 12:15:35;;;;;;;1.67;0.32;;;12.00;99.90;;;;;;5092321;28;20028;-81
2021/05/26 12:18:01;;;;;;;1.77;0.40;;;12.10;99.90;;;;;;5075893;28;20519;-82
2021/05/26 12:20:28;;;;;;;1.25;0.28;;;12.00;99.90;;;;;;5073111;28;20017;-81
2021/05/26 12:22:57;;;;;;;2.35;0.40;;;12.10;99.90;;;;;;5074756;28;20077;-82
2021/05/26 12:25:34;;;;;;;1.60;0.40;;;12.10;99.90;;;;;;5073329;28;20024;-81
2021/05/26 12:28:01;;;;;;;1.42;0.40;;;12.10;99.90;;;;;;5075503;28;20030;-82
2021/05/26 12:30:27;;;;;;;2.65;0.40;;;12.30;99.90;;;;;;5073581;28;20039;-82
2021/05/26 12:33:15;;;;;;;1.50;0.43;;;12.40;99.90;;;;;;5074414;28;20032;-81
2021/05/26 12:35:41;;;;;;;1.08;0.30;;;12.60;99.90;;;;;;5073152;28;20466;-81
2021/05/26 12:38:16;;;;;;;2.08;0.50;;;12.80;99.90;;;;;;5077255;28;20020;-82
2021/05/26 12:40:42;;;;;;;1.35;0.25;;;13.00;99.90;;;;;;5075515;28;20036;-82
2021/05/26 12:43:30;;;;;;;1.27;0.45;;;13.40;99.90;;;;;;5074532;28;20035;-81
2021/05/26 12:45:57;;;;;;;2.42;0.40;;;13.20;99.90;;;;;;5073361;28;20029;-81
2021/05/26 12:48:27;;;;;;;1.23;0.20;;;13.10;99.90;;;;;;5063393;28;20028;-81
2021/05/26 12:50:53;;;;;;;2.47;0.28;;;13.00;99.90;;;;;;5073152;28;20032;-81
2021/05/26 12:53:19;;;;;;;1.45;0.30;;;12.80;99.90;;;;;;5070772;28;20025;-82
2021/05/26 12:55:44;;;;;;;0.55;0.10;;;12.80;99.90;;;;;;5081665;28;20025;-82